Aurora, Minnesota
Current Conditions -  °F | °C
As of 9:11 AM on Monday 24 Nov 2014 (Local Time) from KEVM Reporting Station
Overcast Overcast  
Wind Chill: 14°   Ceiling: 1100
Heat Index: 27°   Visibility: 7mi
Dew Point: 23°   Wind: 16mph
Humidity: 86%   Direction: 320°NW
Pressure: 29.34"   Gusts: 22mph
Location:  47.53°N, 92.24°W
Report Text: KEVM 241511Z AUTO 32014G19KT 7SM OVC011 M03/M05 A2934 RMK AO2
Loading
Personal Weather Stations






























Interactive Weather Map New forecast layout! Learn more

10-Day Weather Forecast

Advertisements
Track Severe Weather on mobile